Time;durP1;ratioP1;P1;durP2;ratioP2;P2;SDS_P1;SDS_P2;PMS_P1;PMS_P2;Temp;Humidity;BMP_temperature;BMP_pressure;BME280_temperature;BME280_humidity;BME280_pressure;Samples;Min_cycle;Max_cycle;Signal;HPM_P1;HPM_P2
2021/07/06 00:01:53;;;;;;;7.95;6.28;;;18.00;99.90;;;;;;5040207;28;20031;-69
2021/07/06 00:04:19;;;;;;;7.30;5.97;;;18.00;99.90;;;;;;5034722;28;20067;-70
2021/07/06 00:06:45;;;;;;;7.32;5.32;;;18.00;99.90;;;;;;5033275;28;20032;-69
2021/07/06 00:09:10;;;;;;;7.60;6.90;;;18.00;99.90;;;;;;5034374;28;20108;-69
2021/07/06 00:11:36;;;;;;;6.95;5.85;;;18.00;99.90;;;;;;5043647;28;20504;-69
2021/07/06 00:14:01;;;;;;;5.70;4.70;;;18.00;99.90;;;;;;5034055;28;20083;-69
2021/07/06 00:16:27;;;;;;;6.93;5.18;;;18.00;99.90;;;;;;5035483;28;20048;-69
2021/07/06 00:18:52;;;;;;;5.65;4.95;;;18.10;99.90;;;;;;5039686;28;20021;-69
2021/07/06 00:21:18;;;;;;;4.40;4.00;;;18.10;99.90;;;;;;5034266;28;20099;-69
2021/07/06 00:23:44;;;;;;;4.47;4.07;;;18.10;99.90;;;;;;5036338;28;20052;-69
2021/07/06 00:26:09;;;;;;;5.18;4.30;;;18.10;99.90;;;;;;5037183;28;20123;-70
2021/07/06 00:28:35;;;;;;;6.97;4.07;;;18.10;99.90;;;;;;5034161;28;20032;-70
2021/07/06 00:31:01;;;;;;;5.40;2.90;;;18.20;99.90;;;;;;5034161;28;20025;-69
2021/07/06 00:33:30;;;;;;;3.67;3.30;;;18.20;99.90;;;;;;5037987;28;20029;-69
2021/07/06 00:35:59;;;;;;;3.25;2.95;;;18.20;99.90;;;;;;5034030;28;20020;-70
2021/07/06 00:38:28;;;;;;;3.20;2.60;;;18.20;99.90;;;;;;5036725;28;20076;-69
2021/07/06 00:40:54;;;;;;;;;;;18.20;99.90;;;;;;5036150;28;20481;-69
2021/07/06 00:43:20;;;;;;;3.03;2.13;;;18.20;99.90;;;;;;5033660;28;19905;-69
2021/07/06 00:45:46;;;;;;;3.15;1.60;;;18.20;99.90;;;;;;5036689;28;20044;-70
2021/07/06 00:48:11;;;;;;;1.85;1.48;;;18.30;99.90;;;;;;5035213;28;20462;-69
2021/07/06 00:50:37;;;;;;;3.25;1.55;;;18.30;99.90;;;;;;5033689;28;20452;-69
2021/07/06 00:53:03;;;;;;;3.28;1.40;;;18.30;99.90;;;;;;5037587;28;20100;-70
2021/07/06 00:55:30;;;;;;;1.50;1.38;;;18.30;99.90;;;;;;5037064;28;20490;-69
2021/07/06 00:57:56;;;;;;;2.30;1.58;;;18.30;99.90;;;;;;5033445;28;20063;-69
2021/07/06 01:00:23;;;;;;;3.03;1.20;;;18.30;99.90;;;;;;5039069;28;20025;-69
2021/07/06 01:02:50;;;;;;;1.83;1.00;;;18.30;99.90;;;;;;5033570;28;20029;-69
2021/07/06 01:05:19;;;;;;;1.30;1.00;;;18.30;99.90;;;;;;5033535;28;20029;-69
2021/07/06 01:07:45;;;;;;;1.30;0.93;;;18.30;99.90;;;;;;5038967;28;20056;-69
2021/07/06 01:10:11;;;;;;;1.83;1.33;;;18.30;99.90;;;;;;5033218;28;20040;-69
2021/07/06 01:12:37;;;;;;;1.42;1.13;;;18.30;99.90;;;;;;5033424;28;20029;-69
2021/07/06 01:15:09;;;;;;;1.50;1.10;;;18.30;99.90;;;;;;5040897;28;20416;-69
2021/07/06 01:17:37;;;;;;;2.78;1.05;;;18.30;99.90;;;;;;5035870;28;20045;-69
2021/07/06 01:20:15;;;;;;;1.95;1.25;;;18.30;99.90;;;;;;5033258;28;20027;-69
2021/07/06 01:22:41;;;;;;;4.25;1.20;;;18.30;99.90;;;;;;5038560;28;20018;-69
2021/07/06 01:25:09;;;;;;;2.03;1.30;;;18.30;99.90;;;;;;5032039;28;20124;-69
2021/07/06 01:27:36;;;;;;;3.47;1.40;;;18.30;99.90;;;;;;5032848;28;20018;-69
2021/07/06 01:30:04;;;;;;;2.97;1.30;;;18.30;99.90;;;;;;5038559;28;20017;-69
2021/07/06 01:32:29;;;;;;;1.40;1.00;;;18.20;99.90;;;;;;5032942;28;20045;-69
2021/07/06 01:34:55;;;;;;;1.40;0.90;;;18.20;99.90;;;;;;5032932;28;20068;-69
2021/07/06 01:37:20;;;;;;;2.17;0.93;;;18.20;99.90;;;;;;5038198;28;20052;-69
2021/07/06 01:39:48;;;;;;;1.13;0.88;;;18.10;99.90;;;;;;5032786;28;20052;-70
2021/07/06 01:42:19;;;;;;;2.08;0.93;;;18.10;99.90;;;;;;5045718;28;20025;-69
2021/07/06 01:44:45;;;;;;;3.78;0.90;;;18.10;99.90;;;;;;5060020;28;20021;-69
2021/07/06 01:47:10;;;;;;;1.23;0.90;;;18.00;99.90;;;;;;5046853;28;20018;-69
2021/07/06 01:49:36;;;;;;;1.60;0.90;;;18.00;99.90;;;;;;5032744;28;20070;-70
2021/07/06 01:52:02;;;;;;;1.98;0.90;;;17.90;99.90;;;;;;5033188;28;20022;-69
2021/07/06 01:54:27;;;;;;;1.23;0.93;;;17.90;99.90;;;;;;5036838;28;20177;-70
2021/07/06 01:56:53;;;;;;;1.23;0.82;;;17.90;99.90;;;;;;5032439;28;20022;-69
2021/07/06 01:59:18;;;;;;;1.00;0.80;;;17.90;99.90;;;;;;5033031;28;20061;-69
2021/07/06 02:01:45;;;;;;;1.23;0.90;;;17.90;99.90;;;;;;5038042;28;20666;-69
2021/07/06 02:04:13;;;;;;;1.65;0.90;;;17.90;99.90;;;;;;5032527;28;20021;-69
2021/07/06 02:06:39;;;;;;;2.95;0.90;;;17.90;99.90;;;;;;5032176;28;20013;-70
2021/07/06 02:09:04;;;;;;;1.98;1.20;;;17.80;99.90;;;;;;5043572;28;20079;-69
2021/07/06 02:11:30;;;;;;;1.60;1.20;;;17.90;99.90;;;;;;5032207;28;20059;-70
2021/07/06 02:13:56;;;;;;;1.90;1.30;;;17.90;99.90;;;;;;5032312;28;20017;-70
2021/07/06 02:16:22;;;;;;;1.80;1.27;;;17.80;99.90;;;;;;5040301;28;20017;-69
2021/07/06 02:18:47;;;;;;;3.58;1.30;;;17.80;99.90;;;;;;5031007;28;20493;-70
2021/07/06 02:21:14;;;;;;;2.95;1.33;;;17.80;99.90;;;;;;5032152;28;20052;-70
2021/07/06 02:23:40;;;;;;;1.80;1.40;;;17.80;99.90;;;;;;5037455;28;20041;-70
2021/07/06 02:26:09;;;;;;;5.63;1.50;;;17.80;99.90;;;;;;5032384;28;20104;-70
2021/07/06 02:28:35;;;;;;;;;;;17.80;99.90;;;;;;5032437;28;20528;-69
2021/07/06 02:31:01;;;;;;;2.80;1.40;;;17.80;99.90;;;;;;5032150;28;19905;-69
2021/07/06 02:33:32;;;;;;;2.38;1.70;;;17.70;99.90;;;;;;5032101;28;20075;-70
2021/07/06 02:35:58;;;;;;;3.38;1.65;;;17.70;99.90;;;;;;5034163;28;20029;-70
2021/07/06 02:38:24;;;;;;;1.52;1.42;;;17.70;99.90;;;;;;5041764;28;20385;-70
2021/07/06 02:40:50;;;;;;;2.08;1.60;;;17.70;99.90;;;;;;5036220;28;20014;-69
2021/07/06 02:43:16;;;;;;;2.15;1.40;;;17.70;99.90;;;;;;5041614;28;20060;-69
2021/07/06 02:45:42;;;;;;;1.30;1.20;;;17.70;99.90;;;;;;5041492;28;20025;-70
2021/07/06 02:48:09;;;;;;;1.80;1.30;;;17.60;99.90;;;;;;5041566;28;20036;-69
2021/07/06 02:50:39;;;;;;;2.45;1.40;;;17.60;99.90;;;;;;5039922;28;20485;-70
2021/07/06 02:53:04;;;;;;;;;;;17.60;99.90;;;;;;5042032;28;20466;-70
2021/07/06 02:55:30;;;;;;;1.40;1.25;;;17.60;99.90;;;;;;5034667;28;19912;-70
2021/07/06 02:57:56;;;;;;;1.85;1.58;;;17.50;99.90;;;;;;5041296;28;20020;-69
2021/07/06 03:00:23;;;;;;;1.63;1.30;;;17.50;99.90;;;;;;5035686;28;20080;-69
2021/07/06 03:02:57;;;;;;;1.77;1.35;;;17.50;99.90;;;;;;5035658;28;20100;-69
2021/07/06 03:05:24;;;;;;;2.40;1.48;;;17.60;99.90;;;;;;5046886;28;20144;-69
2021/07/06 03:07:51;;;;;;;1.70;1.30;;;17.60;99.90;;;;;;5035827;28;20135;-70
2021/07/06 03:10:23;;;;;;;2.00;1.42;;;17.60;99.90;;;;;;5035732;28;20034;-70
2021/07/06 03:12:49;;;;;;;2.30;1.50;;;17.60;99.90;;;;;;5046507;28;20492;-70
2021/07/06 03:15:17;;;;;;;1.35;1.20;;;17.60;99.90;;;;;;5035473;28;20025;-69
2021/07/06 03:17:43;;;;;;;2.88;1.30;;;17.60;99.90;;;;;;5036568;28;20164;-69
2021/07/06 03:20:11;;;;;;;1.15;1.05;;;17.60;99.90;;;;;;5041039;28;20547;-69
2021/07/06 03:22:37;;;;;;;1.58;1.30;;;17.60;99.90;;;;;;5035377;28;20017;-69
2021/07/06 03:25:08;;;;;;;1.42;1.08;;;17.70;99.90;;;;;;5035277;28;20046;-69
2021/07/06 03:27:34;;;;;;;1.30;0.90;;;17.70;99.90;;;;;;5040565;28;20022;-70
2021/07/06 03:29:59;;;;;;;1.25;0.93;;;17.60;99.90;;;;;;5034606;28;20109;-70
2021/07/06 03:32:25;;;;;;;1.20;0.98;;;17.70;99.90;;;;;;5040815;28;20445;-69
2021/07/06 03:34:50;;;;;;;1.73;1.17;;;17.70;99.90;;;;;;5035325;28;20025;-70
2021/07/06 03:37:16;;;;;;;1.58;1.10;;;17.70;99.90;;;;;;5035510;28;20060;-69
2021/07/06 03:39:42;;;;;;;1.27;1.00;;;17.70;99.90;;;;;;5040388;28;20089;-69
2021/07/06 03:42:09;;;;;;;1.27;0.80;;;17.70;99.90;;;;;;5046149;28;20059;-70
2021/07/06 03:44:35;;;;;;;2.58;0.73;;;17.70;99.90;;;;;;5034953;28;20441;-69
2021/07/06 03:47:02;;;;;;;1.98;0.98;;;17.70;99.90;;;;;;5039456;28;20066;-70
2021/07/06 03:49:27;;;;;;;2.67;0.98;;;17.70;99.90;;;;;;5035100;28;20032;-69
2021/07/06 03:51:53;;;;;;;3.15;1.10;;;17.70;99.90;;;;;;5036417;28;20025;-70
2021/07/06 03:54:19;;;;;;;3.05;1.00;;;17.70;99.90;;;;;;5040445;28;20032;-70
2021/07/06 03:56:44;;;;;;;1.77;0.80;;;17.70;99.90;;;;;;5035086;28;20022;-70
2021/07/06 03:59:10;;;;;;;1.17;0.80;;;17.80;99.90;;;;;;5033101;28;20026;-69
2021/07/06 04:01:36;;;;;;;3.45;0.80;;;17.80;99.90;;;;;;5035013;28;20083;-69
2021/07/06 04:04:02;;;;;;;2.85;0.88;;;17.80;99.90;;;;;;5043243;28;20013;-69
2021/07/06 04:06:27;;;;;;;3.78;0.82;;;17.90;99.90;;;;;;5046321;28;20373;-69
2021/07/06 04:08:53;;;;;;;1.48;0.90;;;17.90;99.90;;;;;;5042908;28;20040;-69
2021/07/06 04:11:19;;;;;;;2.72;1.00;;;17.90;99.90;;;;;;5043698;28;20021;-70
2021/07/06 04:13:44;;;;;;;2.55;0.70;;;17.90;99.90;;;;;;5043812;28;20064;-70
2021/07/06 04:16:10;;;;;;;1.85;1.00;;;17.90;99.90;;;;;;5043980;28;20047;-69
2021/07/06 04:18:35;;;;;;;1.05;0.70;;;17.90;99.90;;;;;;5037874;28;20029;-69
2021/07/06 04:21:01;;;;;;;1.10;0.90;;;18.00;99.90;;;;;;5047408;28;20053;-69
2021/07/06 04:23:26;;;;;;;1.13;1.00;;;18.00;99.90;;;;;;5042989;28;20041;-69
2021/07/06 04:25:52;;;;;;;1.17;0.93;;;18.00;99.90;;;;;;5044074;28;20381;-70
2021/07/06 04:28:17;;;;;;;1.20;0.80;;;18.00;99.90;;;;;;5046080;28;20634;-71
2021/07/06 04:30:43;;;;;;;1.20;0.90;;;18.00;99.90;;;;;;5044727;28;20030;-70
2021/07/06 04:33:09;;;;;;;1.75;1.00;;;18.10;99.90;;;;;;5046163;28;20022;-70
2021/07/06 04:35:35;;;;;;;2.38;0.90;;;18.10;99.90;;;;;;5045557;28;20035;-70
2021/07/06 04:38:00;;;;;;;1.20;0.73;;;18.10;99.90;;;;;;5044824;28;20017;-70
2021/07/06 04:40:26;;;;;;;2.50;1.00;;;18.10;99.90;;;;;;5048277;28;20021;-70
2021/07/06 04:42:55;;;;;;;2.15;1.00;;;18.10;99.90;;;;;;5043461;28;20034;-70
2021/07/06 04:45:20;;;;;;;1.92;0.90;;;18.10;99.90;;;;;;5043181;28;20029;-70
2021/07/06 04:47:46;;;;;;;3.17;0.90;;;18.20;99.90;;;;;;5045462;28;20366;-70
2021/07/06 04:50:13;;;;;;;3.60;0.80;;;18.20;99.90;;;;;;5046685;28;20108;-70
2021/07/06 04:52:43;;;;;;;2.63;0.88;;;18.30;99.90;;;;;;5041891;28;20114;-69
2021/07/06 04:55:09;;;;;;;4.03;0.80;;;18.40;99.90;;;;;;5044686;28;20382;-69
2021/07/06 04:57:35;;;;;;;1.85;1.10;;;18.60;99.90;;;;;;5044978;28;20519;-70
2021/07/06 05:00:00;;;;;;;5.18;0.90;;;18.60;99.90;;;;;;5042360;28;20037;-69
2021/07/06 05:02:26;;;;;;;2.95;1.20;;;18.70;99.90;;;;;;5044173;28;20096;-70
2021/07/06 05:04:52;;;;;;;2.38;0.93;;;18.70;99.90;;;;;;5043320;28;20117;-69
2021/07/06 05:07:17;;;;;;;1.48;1.00;;;18.80;99.90;;;;;;5050366;28;20032;-69
2021/07/06 05:09:43;;;;;;;1.95;0.85;;;18.80;99.90;;;;;;5051495;28;20028;-69
2021/07/06 05:12:09;;;;;;;3.88;0.70;;;18.80;99.90;;;;;;5040099;28;20022;-69
2021/07/06 05:14:34;;;;;;;3.60;0.80;;;18.90;99.90;;;;;;5033689;28;20048;-69
2021/07/06 05:17:01;;;;;;;1.75;0.82;;;18.90;99.90;;;;;;5039301;28;20025;-69
2021/07/06 05:19:27;;;;;;;3.42;1.02;;;18.90;99.90;;;;;;5036124;28;20026;-69
2021/07/06 05:21:52;;;;;;;2.63;0.90;;;19.00;99.90;;;;;;5033698;28;20068;-69
2021/07/06 05:24:18;;;;;;;2.25;0.82;;;19.00;99.90;;;;;;5033278;28;20080;-69
2021/07/06 05:26:43;;;;;;;2.03;0.63;;;19.00;99.90;;;;;;5033554;28;20071;-69
2021/07/06 05:29:09;;;;;;;2.15;0.80;;;19.10;99.90;;;;;;5045612;28;20389;-69
2021/07/06 05:31:34;;;;;;;2.50;0.90;;;19.10;99.90;;;;;;5032647;28;20042;-69
2021/07/06 05:34:00;;;;;;;3.70;0.90;;;19.10;99.90;;;;;;5044604;28;20115;-69
2021/07/06 05:36:25;;;;;;;1.90;0.90;;;19.10;99.90;;;;;;5036111;28;20423;-69
2021/07/06 05:38:53;;;;;;;2.13;0.98;;;19.20;99.90;;;;;;5033391;28;20029;-69
2021/07/06 05:41:18;;;;;;;1.88;0.82;;;19.20;99.90;;;;;;5032867;28;20399;-69
2021/07/06 05:43:44;;;;;;;2.17;0.85;;;19.20;99.90;;;;;;5032744;28;20029;-69
2021/07/06 05:46:10;;;;;;;4.68;1.27;;;19.20;99.70;;;;;;5033188;28;20040;-69
2021/07/06 05:48:35;;;;;;;3.25;1.05;;;19.30;99.80;;;;;;5033138;28;20025;-69
2021/07/06 05:51:01;;;;;;;3.88;1.00;;;19.30;99.80;;;;;;5040708;28;20024;-69
2021/07/06 05:53:26;;;;;;;2.55;1.55;;;19.30;99.80;;;;;;5038363;28;20028;-69
2021/07/06 05:55:52;;;;;;;4.53;1.30;;;19.40;99.80;;;;;;5032914;28;20029;-69
2021/07/06 05:58:17;;;;;;;3.55;0.98;;;19.40;99.80;;;;;;5033083;28;20033;-69
2021/07/06 06:00:44;;;;;;;2.17;1.10;;;19.40;99.80;;;;;;5032898;28;20093;-69
2021/07/06 06:03:11;;;;;;;4.10;1.00;;;19.40;99.90;;;;;;5032866;28;20028;-69
2021/07/06 06:05:41;;;;;;;1.48;1.02;;;19.50;99.80;;;;;;5032757;28;20017;-69
2021/07/06 06:08:07;;;;;;;2.35;0.95;;;19.50;99.90;;;;;;5032809;28;20022;-69
2021/07/06 06:10:33;;;;;;;2.53;1.10;;;19.50;99.90;;;;;;5046085;28;20380;-69
2021/07/06 06:12:59;;;;;;;4.68;0.88;;;19.50;99.80;;;;;;5052998;28;20565;-69
2021/07/06 06:15:25;;;;;;;2.58;1.10;;;19.50;99.90;;;;;;5040840;28;20108;-69
2021/07/06 06:17:51;;;;;;;3.33;1.30;;;19.50;99.90;;;;;;5038977;28;20105;-69
2021/07/06 06:20:17;;;;;;;5.40;1.30;;;19.50;99.90;;;;;;5031340;28;20025;-69
2021/07/06 06:22:43;;;;;;;4.05;1.30;;;19.50;99.70;;;;;;5032684;28;20504;-69
2021/07/06 06:25:10;;;;;;;5.22;1.20;;;19.60;99.80;;;;;;5032364;28;20049;-69
2021/07/06 06:27:36;;;;;;;2.85;1.00;;;19.60;99.90;;;;;;5040457;28;20021;-69
2021/07/06 06:30:04;;;;;;;2.53;0.93;;;19.60;99.80;;;;;;5051024;28;20044;-69
2021/07/06 06:32:29;;;;;;;5.38;1.30;;;19.60;99.80;;;;;;5052277;28;20104;-69
2021/07/06 06:34:55;;;;;;;2.30;1.10;;;19.60;99.90;;;;;;5052107;28;20104;-69
2021/07/06 06:37:20;;;;;;;2.05;0.80;;;19.60;99.90;;;;;;5051974;28;20555;-69
2021/07/06 06:39:46;;;;;;;2.58;0.90;;;19.60;99.90;;;;;;5052054;28;20103;-69
2021/07/06 06:42:12;;;;;;;1.88;0.95;;;19.60;99.90;;;;;;5049282;28;20477;-69
2021/07/06 06:44:38;;;;;;;2.75;1.13;;;19.70;99.90;;;;;;5051965;28;20460;-69
2021/07/06 06:47:04;;;;;;;2.90;1.10;;;19.70;99.90;;;;;;5050789;28;20013;-69
2021/07/06 06:49:32;;;;;;;1.48;0.93;;;19.60;99.90;;;;;;5050242;28;20025;-69
2021/07/06 06:51:57;;;;;;;2.40;0.90;;;19.70;99.90;;;;;;5046696;28;20033;-69
2021/07/06 06:54:23;;;;;;;2.72;1.17;;;19.70;99.90;;;;;;5049321;28;20389;-69
2021/07/06 06:56:48;;;;;;;2.13;1.10;;;19.70;99.90;;;;;;5044041;28;20485;-70
2021/07/06 06:59:14;;;;;;;2.63;1.15;;;19.80;99.90;;;;;;5048611;28;20036;-69
2021/07/06 07:01:40;;;;;;;5.07;0.95;;;19.80;99.90;;;;;;5031046;28;20021;-69
2021/07/06 07:04:06;;;;;;;3.83;1.08;;;19.80;99.90;;;;;;5034774;28;20583;-69
2021/07/06 07:06:35;;;;;;;2.88;1.30;;;19.80;99.80;;;;;;5048118;28;20091;-69
2021/07/06 07:09:03;;;;;;;1.20;0.90;;;19.90;99.80;;;;;;5032393;28;20021;-69
2021/07/06 07:11:29;;;;;;;3.20;1.15;;;19.90;99.80;;;;;;5044200;28;20037;-69
2021/07/06 07:13:54;;;;;;;3.22;0.80;;;20.00;99.50;;;;;;5032019;28;20037;-69
2021/07/06 07:16:20;;;;;;;1.88;0.80;;;20.00;99.30;;;;;;5033464;28;20037;-69
2021/07/06 07:18:46;;;;;;;2.55;0.88;;;20.00;99.10;;;;;;5039026;28;20036;-69
2021/07/06 07:21:11;;;;;;;2.08;0.70;;;20.10;98.70;;;;;;5031309;28;20037;-69
2021/07/06 07:23:38;;;;;;;2.05;0.70;;;20.00;98.60;;;;;;5035631;28;20452;-68
2021/07/06 07:26:04;;;;;;;1.70;0.70;;;20.10;98.50;;;;;;5035703;28;20052;-68
2021/07/06 07:28:29;;;;;;;2.13;0.70;;;20.10;98.10;;;;;;5035947;28;20022;-69
2021/07/06 07:30:55;;;;;;;3.72;0.70;;;20.10;97.90;;;;;;5049381;28;20481;-69
2021/07/06 07:33:20;;;;;;;1.10;0.60;;;20.10;97.90;;;;;;5035308;28;20104;-68
2021/07/06 07:35:46;;;;;;;1.23;0.50;;;20.20;97.30;;;;;;5035022;28;20022;-68
2021/07/06 07:38:11;;;;;;;1.02;0.60;;;20.20;97.30;;;;;;5035296;28;20032;-69
2021/07/06 07:40:37;;;;;;;0.95;0.57;;;20.20;96.90;;;;;;5035267;28;20489;-68
2021/07/06 07:43:06;;;;;;;1.10;0.63;;;20.20;97.10;;;;;;5035035;28;20048;-68
2021/07/06 07:45:36;;;;;;;2.00;0.70;;;20.20;97.10;;;;;;5043621;28;20526;-68
2021/07/06 07:48:03;;;;;;;1.88;0.50;;;20.20;96.80;;;;;;5042932;28;20017;-69
2021/07/06 07:50:29;;;;;;;3.55;0.68;;;20.30;96.10;;;;;;5038210;28;20091;-68
2021/07/06 07:52:55;;;;;;;2.30;1.00;;;20.20;95.90;;;;;;5045318;28;20071;-68
2021/07/06 07:55:20;;;;;;;2.42;0.57;;;20.20;95.80;;;;;;5050537;28;20427;-68
2021/07/06 07:57:46;;;;;;;1.50;0.55;;;20.20;96.00;;;;;;5041193;28;20035;-68
2021/07/06 08:00:12;;;;;;;1.08;0.40;;;20.20;96.00;;;;;;5035290;28;20029;-68
2021/07/06 08:02:38;;;;;;;2.38;0.75;;;20.20;95.10;;;;;;5035117;28;20363;-69
2021/07/06 08:05:04;;;;;;;3.00;0.93;;;20.20;95.10;;;;;;5034726;28;20032;-68
2021/07/06 08:07:30;;;;;;;2.90;0.52;;;20.20;95.40;;;;;;5034884;28;20057;-69
2021/07/06 08:09:56;;;;;;;2.15;0.60;;;20.20;95.00;;;;;;5044032;28;20512;-69
2021/07/06 08:12:21;;;;;;;1.63;0.50;;;20.10;94.40;;;;;;5039724;28;20117;-69
2021/07/06 08:14:49;;;;;;;3.55;0.43;;;20.10;94.40;;;;;;5034938;28;20040;-68
2021/07/06 08:17:15;;;;;;;2.05;0.60;;;20.10;94.20;;;;;;5043539;28;20043;-68
2021/07/06 08:19:40;;;;;;;2.00;0.40;;;20.10;94.90;;;;;;5035071;28;20021;-68
2021/07/06 08:22:06;;;;;;;1.50;0.50;;;20.40;95.10;;;;;;5033606;28;20116;-68
2021/07/06 08:24:31;;;;;;;1.30;0.60;;;20.50;94.80;;;;;;5034573;28;20048;-68
2021/07/06 08:26:57;;;;;;;1.50;0.70;;;20.60;94.00;;;;;;5043939;28;20472;-68
2021/07/06 08:29:24;;;;;;;2.25;0.30;;;20.70;93.90;;;;;;5039259;28;20128;-68
2021/07/06 08:31:49;;;;;;;3.03;0.50;;;20.70;93.80;;;;;;5034476;28;20489;-68
2021/07/06 08:34:15;;;;;;;8.30;0.60;;;20.70;92.90;;;;;;5033944;28;20093;-68
2021/07/06 08:36:40;;;;;;;8.48;1.38;;;20.70;92.80;;;;;;5034219;28;20032;-68
2021/07/06 08:39:06;;;;;;;3.88;0.90;;;20.70;92.50;;;;;;5042279;28;20029;-68
2021/07/06 08:41:34;;;;;;;1.83;0.50;;;20.60;92.60;;;;;;5035610;28;20025;-69
2021/07/06 08:43:59;;;;;;;2.35;0.52;;;20.70;92.90;;;;;;5034394;28;20024;-68
2021/07/06 08:46:26;;;;;;;2.53;0.47;;;20.80;92.40;;;;;;5032874;28;20030;-69
2021/07/06 08:48:51;;;;;;;2.25;0.60;;;20.80;92.80;;;;;;5034364;28;20026;-69
2021/07/06 08:51:21;;;;;;;3.60;0.50;;;20.90;92.90;;;;;;5043336;28;20036;-68
2021/07/06 08:53:48;;;;;;;2.83;0.65;;;20.90;92.40;;;;;;5034222;28;20147;-66
2021/07/06 08:56:14;;;;;;;2.45;0.40;;;21.00;91.90;;;;;;5039546;28;20169;-68
2021/07/06 08:58:39;;;;;;;3.92;0.63;;;21.00;91.70;;;;;;5035236;28;20096;-68
2021/07/06 09:01:05;;;;;;;1.45;0.60;;;21.00;92.10;;;;;;5033823;28;20037;-68
2021/07/06 09:03:50;;;;;;;4.90;0.57;;;20.90;92.00;;;;;;5040001;28;20098;-68
2021/07/06 09:06:16;;;;;;;5.00;0.70;;;21.00;92.00;;;;;;5053840;28;20032;-68
2021/07/06 09:08:41;;;;;;;1.23;0.40;;;21.00;91.90;;;;;;5041905;28;20041;-69
2021/07/06 09:11:14;;;;;;;1.33;0.40;;;21.00;92.10;;;;;;5044035;28;20052;-68
2021/07/06 09:13:40;;;;;;;2.35;0.70;;;21.20;91.30;;;;;;5036351;28;20017;-68
2021/07/06 09:16:06;;;;;;;2.67;0.70;;;21.30;91.20;;;;;;5033711;28;20029;-68
2021/07/06 09:18:32;;;;;;;2.90;0.50;;;21.30;91.00;;;;;;5050121;28;20029;-67
2021/07/06 09:21:01;;;;;;;3.13;0.40;;;21.20;90.50;;;;;;5050756;28;20484;-67
2021/07/06 09:23:34;;;;;;;1.38;0.75;;;21.30;91.60;;;;;;5052585;28;20024;-67
2021/07/06 09:26:06;;;;;;;5.40;0.77;;;21.30;89.90;;;;;;5044744;28;20025;-68
2021/07/06 09:28:34;;;;;;;5.40;0.60;;;21.20;89.10;;;;;;5033536;28;20060;-67
2021/07/06 09:31:27;;;;;;;1.97;0.70;;;21.00;89.30;;;;;;5032574;28;20027;-67
2021/07/06 09:34:04;;;;;;;2.03;0.40;;;20.90;90.00;;;;;;5026208;28;20083;-68
2021/07/06 09:36:47;;;;;;;2.20;0.55;;;20.80;88.80;;;;;;5035060;28;20029;-68
2021/07/06 09:39:23;;;;;;;2.78;0.40;;;21.00;90.00;;;;;;5036533;28;20021;-68
2021/07/06 09:41:53;;;;;;;5.40;0.57;;;21.20;90.00;;;;;;5040067;28;20025;-68
2021/07/06 09:44:24;;;;;;;2.78;0.50;;;21.40;88.70;;;;;;5033250;28;20017;-67
2021/07/06 09:46:55;;;;;;;1.63;0.50;;;21.50;87.60;;;;;;5037589;28;20030;-68
2021/07/06 09:49:24;;;;;;;1.45;0.40;;;21.60;86.30;;;;;;5042800;28;20033;-68
2021/07/06 09:51:51;;;;;;;2.63;0.40;;;21.70;85.60;;;;;;5041291;28;20147;-68
2021/07/06 09:54:28;;;;;;;2.15;0.63;;;21.80;85.10;;;;;;5037335;28;20069;-67
2021/07/06 09:57:03;;;;;;;2.20;0.50;;;21.80;84.00;;;;;;5032917;28;20488;-68
2021/07/06 09:59:29;;;;;;;3.80;0.68;;;21.80;84.10;;;;;;5032422;28;20466;-68
2021/07/06 10:01:55;;;;;;;3.55;0.60;;;21.70;84.70;;;;;;5032302;28;20038;-68
2021/07/06 10:04:26;;;;;;;3.28;0.68;;;21.70;85.10;;;;;;5033309;28;20022;-68
2021/07/06 10:06:53;;;;;;;3.35;0.60;;;21.80;84.40;;;;;;5032603;28;20021;-68
2021/07/06 10:09:19;;;;;;;2.72;0.73;;;21.90;84.50;;;;;;5036588;28;20401;-68
2021/07/06 10:11:45;;;;;;;1.50;0.50;;;21.90;85.00;;;;;;5043995;28;20036;-68
2021/07/06 10:14:10;;;;;;;2.78;0.60;;;21.90;82.10;;;;;;5036441;28;20036;-68
2021/07/06 10:16:38;;;;;;;2.88;0.70;;;21.80;82.60;;;;;;5036390;28;20021;-68
2021/07/06 10:19:07;;;;;;;3.33;0.60;;;21.80;83.60;;;;;;5038109;28;20025;-68
2021/07/06 10:21:33;;;;;;;2.20;0.47;;;21.80;82.90;;;;;;5032824;28;20028;-68
2021/07/06 10:24:01;;;;;;;2.70;0.50;;;21.80;83.70;;;;;;5041579;28;20124;-68
2021/07/06 10:26:28;;;;;;;3.03;0.70;;;21.80;83.50;;;;;;5033256;28;20038;-68
2021/07/06 10:28:55;;;;;;;2.53;0.75;;;21.70;81.60;;;;;;5032669;28;20056;-68
2021/07/06 10:31:22;;;;;;;2.85;0.60;;;21.60;83.80;;;;;;5032496;28;20025;-69
2021/07/06 10:33:49;;;;;;;3.80;1.23;;;21.60;83.40;;;;;;5032719;28;20095;-68
2021/07/06 10:36:16;;;;;;;3.22;0.60;;;21.50;83.70;;;;;;5032422;28;20026;-68
2021/07/06 10:38:48;;;;;;;6.07;0.68;;;21.50;82.10;;;;;;5037164;28;20033;-68
2021/07/06 10:41:35;;;;;;;4.03;0.47;;;21.60;80.90;;;;;;5043205;28;20025;-67
2021/07/06 10:44:02;;;;;;;3.33;0.88;;;21.60;80.40;;;;;;5052130;28;20100;-67
2021/07/06 10:46:49;;;;;;;4.13;0.80;;;21.60;82.10;;;;;;5048762;28;20050;-67
2021/07/06 10:49:27;;;;;;;2.70;0.60;;;21.80;83.00;;;;;;5052104;28;20020;-67
2021/07/06 10:51:55;;;;;;;4.10;0.50;;;21.90;83.60;;;;;;5045815;28;20033;-67
2021/07/06 10:54:20;;;;;;;3.33;0.52;;;21.90;77.60;;;;;;5031039;28;20021;-67
2021/07/06 10:56:54;;;;;;;3.28;0.90;;;22.00;75.90;;;;;;5033838;28;20029;-67
2021/07/06 10:59:22;;;;;;;3.67;0.90;;;22.00;75.50;;;;;;5036209;28;20025;-68
2021/07/06 11:01:48;;;;;;;3.67;0.80;;;22.00;74.30;;;;;;5035830;28;20028;-68
2021/07/06 11:04:39;;;;;;;3.85;0.80;;;22.00;75.50;;;;;;5035632;28;20021;-68
2021/07/06 11:07:10;;;;;;;6.72;0.90;;;22.20;76.20;;;;;;5034841;28;20551;-68
2021/07/06 11:09:35;;;;;;;5.18;1.15;;;22.20;74.70;;;;;;5036788;28;20017;-68
2021/07/06 11:12:34;;;;;;;2.35;0.60;;;22.00;73.50;;;;;;5035714;28;20056;-67
2021/07/06 11:15:04;;;;;;;;;;;22.00;73.80;;;;;;5036086;28;20096;-68
2021/07/06 11:17:37;;;;;;;5.47;1.00;;;22.00;74.50;;;;;;5037306;28;19905;-68
2021/07/06 11:20:11;;;;;;;3.47;0.68;;;22.00;75.00;;;;;;5034251;28;20022;-67
2021/07/06 11:22:48;;;;;;;4.13;0.70;;;22.00;75.60;;;;;;5035450;28;20021;-67
2021/07/06 11:25:24;;;;;;;6.47;0.80;;;22.10;75.40;;;;;;5033640;28;20038;-68
2021/07/06 11:28:07;;;;;;;2.65;0.52;;;22.10;73.80;;;;;;5035475;28;20025;-68
2021/07/06 11:30:33;;;;;;;6.30;1.17;;;22.20;72.80;;;;;;5035295;28;20032;-68
2021/07/06 11:33:04;;;;;;;6.25;0.70;;;22.30;71.20;;;;;;5035174;28;20036;-68
2021/07/06 11:35:32;;;;;;;3.22;0.63;;;22.30;71.10;;;;;;5035030;28;20033;-68
2021/07/06 11:38:07;;;;;;;2.95;0.85;;;22.30;71.50;;;;;;5034265;28;20263;-68
2021/07/06 11:40:34;;;;;;;3.50;0.70;;;22.20;71.00;;;;;;5044629;28;20090;-68
2021/07/06 11:43:00;;;;;;;6.60;0.90;;;22.10;71.20;;;;;;5047477;28;20013;-68
2021/07/06 11:45:25;;;;;;;2.55;0.60;;;22.10;70.80;;;;;;5035195;28;20366;-68
2021/07/06 11:48:10;;;;;;;1.88;0.60;;;22.00;69.40;;;;;;5033925;28;20025;-68
2021/07/06 11:50:36;;;;;;;2.67;0.50;;;21.90;68.60;;;;;;5039432;28;20496;-68
2021/07/06 11:53:03;;;;;;;2.33;0.50;;;21.80;68.70;;;;;;5035120;28;20040;-68
2021/07/06 11:55:30;;;;;;;3.78;0.88;;;21.80;68.30;;;;;;5036747;28;20029;-68
2021/07/06 11:57:58;;;;;;;3.25;0.60;;;21.90;68.60;;;;;;5036040;28;20488;-68
2021/07/06 12:00:26;;;;;;;2.50;0.60;;;22.00;68.70;;;;;;5032880;28;20022;-68
2021/07/06 12:03:12;;;;;;;2.35;0.50;;;22.00;67.80;;;;;;5039479;28;20025;-68
2021/07/06 12:05:38;;;;;;;9.48;1.15;;;22.20;68.00;;;;;;5039768;28;20026;-68
2021/07/06 12:08:14;;;;;;;7.15;0.88;;;22.20;67.70;;;;;;5047346;28;21153;-68
2021/07/06 12:11:02;;;;;;;4.38;0.70;;;22.00;67.70;;;;;;5041258;28;20017;-68
2021/07/06 12:13:36;;;;;;;4.25;0.65;;;22.00;68.20;;;;;;5045167;28;20435;-68
2021/07/06 12:16:06;;;;;;;2.75;0.60;;;22.10;67.60;;;;;;5054310;28;20764;-68
2021/07/06 12:18:34;;;;;;;3.63;0.40;;;22.10;66.60;;;;;;5055001;28;20040;-68
2021/07/06 12:21:07;;;;;;;4.53;0.52;;;22.10;66.90;;;;;;5054507;28;20028;-68
2021/07/06 12:23:45;;;;;;;6.60;0.85;;;22.20;66.70;;;;;;5054540;28;20156;-68
2021/07/06 12:26:12;;;;;;;4.82;0.70;;;22.20;66.80;;;;;;5054610;28;20036;-68
2021/07/06 12:28:40;;;;;;;6.57;0.88;;;22.20;68.00;;;;;;5054686;28;20036;-68
2021/07/06 12:31:29;;;;;;;3.55;0.45;;;22.20;68.30;;;;;;5054717;28;20025;-68
2021/07/06 12:34:05;;;;;;;;;;;22.30;68.20;;;;;;5055011;28;20033;-68
2021/07/06 12:36:55;;;;;;;4.00;1.00;;;22.00;66.60;;;;;;5054843;28;19912;-68
2021/07/06 12:39:32;;;;;;;2.88;0.60;;;21.80;66.80;;;;;;5045508;28;20393;-68
2021/07/06 12:42:03;;;;;;;4.53;0.57;;;21.70;67.30;;;;;;5054335;28;20021;-68
2021/07/06 12:44:36;;;;;;;2.25;0.60;;;21.60;67.60;;;;;;5054279;28;20029;-68
2021/07/06 12:47:23;;;;;;;3.05;0.50;;;21.70;67.90;;;;;;5044428;28;20029;-68
2021/07/06 12:49:59;;;;;;;5.18;1.05;;;21.80;69.80;;;;;;5033966;28;20026;-68
2021/07/06 12:52:35;;;;;;;4.03;0.50;;;22.00;67.70;;;;;;5035373;28;20112;-68